createdAt,value
2017-12-19T00:01:54.968Z,25.33
2017-12-19T00:04:22.549Z,24.63
2017-12-19T00:06:50.211Z,22.10
2017-12-19T00:09:17.779Z,22.80
2017-12-19T00:11:45.336Z,19.70
2017-12-19T00:14:12.996Z,22.53
2017-12-19T00:16:40.544Z,22.93
2017-12-19T00:19:08.100Z,24.93
2017-12-19T00:21:35.750Z,23.27
2017-12-19T00:24:03.286Z,24.43
2017-12-19T00:26:31.275Z,24.37
2017-12-19T00:28:58.822Z,21.77
2017-12-19T00:31:26.451Z,25.47
2017-12-19T00:33:54.038Z,23.23
2017-12-19T00:36:21.578Z,22.67
2017-12-19T00:38:49.159Z,28.57
2017-12-19T00:41:16.753Z,28.20
2017-12-19T00:43:44.339Z,27.17
2017-12-19T00:46:11.956Z,24.73
2017-12-19T00:48:39.565Z,26.17
2017-12-19T00:51:07.157Z,25.47
2017-12-19T00:53:34.754Z,23.73
2017-12-19T00:56:02.795Z,29.93
2017-12-19T00:58:30.353Z,27.63
2017-12-19T01:00:57.939Z,26.00
2017-12-19T01:03:25.511Z,25.27
2017-12-19T01:05:53.112Z,28.43
2017-12-19T01:08:20.726Z,28.30
2017-12-19T01:10:48.286Z,29.90
2017-12-19T01:13:15.855Z,26.27
2017-12-19T01:15:43.384Z,27.30
2017-12-19T01:18:10.936Z,28.07
2017-12-19T01:20:38.561Z,27.57
2017-12-19T01:23:06.103Z,30.97
2017-12-19T01:25:34.184Z,27.53
2017-12-19T01:28:01.790Z,26.47
2017-12-19T01:30:29.884Z,27.10
2017-12-19T01:32:57.443Z,28.53
2017-12-19T01:35:24.994Z,27.63
2017-12-19T01:37:52.551Z,27.10
2017-12-19T01:40:20.090Z,26.27
2017-12-19T01:42:47.636Z,27.33
2017-12-19T01:45:15.283Z,33.90
2017-12-19T01:47:42.870Z,24.93
2017-12-19T01:50:10.408Z,23.60
2017-12-19T01:52:38.000Z,28.97
2017-12-19T01:55:05.582Z,30.03
2017-12-19T01:57:33.148Z,25.90
2017-12-19T02:00:00.730Z,24.07
2017-12-19T02:02:28.400Z,28.70
2017-12-19T02:04:56.384Z,28.23
2017-12-19T02:07:23.993Z,29.43
2017-12-19T02:09:51.541Z,26.33
2017-12-19T02:12:19.128Z,26.10
2017-12-19T02:14:46.715Z,25.33
2017-12-19T02:17:14.283Z,27.53
2017-12-19T02:19:41.853Z,26.73
2017-12-19T02:22:09.430Z,29.53
2017-12-19T02:24:36.988Z,26.37
2017-12-19T02:27:04.514Z,27.73
2017-12-19T02:29:32.085Z,28.10
2017-12-19T02:31:59.627Z,35.13
2017-12-19T02:34:27.607Z,31.07
2017-12-19T02:36:55.186Z,34.70
2017-12-19T02:39:22.721Z,28.27
2017-12-19T02:41:50.295Z,25.60
2017-12-19T02:44:17.872Z,29.60
2017-12-19T02:46:45.439Z,25.47
2017-12-19T02:49:12.980Z,28.87
2017-12-19T02:51:41.023Z,30.40
2017-12-19T02:54:08.586Z,32.33
2017-12-19T02:56:36.146Z,26.53
2017-12-19T02:59:03.812Z,29.67
2017-12-19T03:01:31.381Z,27.40
2017-12-19T03:03:59.412Z,26.40
2017-12-19T03:06:26.966Z,28.57
2017-12-19T03:08:54.538Z,28.83
2017-12-19T03:11:22.118Z,26.43
2017-12-19T03:13:49.739Z,28.10
2017-12-19T03:16:17.600Z,25.47
2017-12-19T03:18:45.162Z,25.93
2017-12-19T03:21:12.701Z,30.03
2017-12-19T03:23:40.348Z,27.63
2017-12-19T03:26:07.882Z,28.03
2017-12-19T03:28:35.704Z,22.80
2017-12-19T03:31:03.286Z,24.33
2017-12-19T03:33:31.159Z,21.47
2017-12-19T03:35:58.776Z,25.30
2017-12-19T03:38:26.328Z,24.97
2017-12-19T03:40:54.234Z,28.83
2017-12-19T03:43:21.770Z,29.33
2017-12-19T03:45:49.314Z,29.63
2017-12-19T03:48:16.948Z,26.87
2017-12-19T03:50:44.512Z,32.17
2017-12-19T03:53:12.074Z,30.33
2017-12-19T03:55:39.626Z,26.20
2017-12-19T03:58:07.172Z,30.30
2017-12-19T04:00:34.736Z,32.13
2017-12-19T04:03:02.292Z,30.37
2017-12-19T04:05:30.136Z,26.57
2017-12-19T04:07:57.682Z,26.83
2017-12-19T04:10:25.260Z,28.20
2017-12-19T04:12:52.814Z,26.57
2017-12-19T04:15:20.418Z,28.03
2017-12-19T04:17:47.987Z,24.27
2017-12-19T04:20:15.535Z,25.67
2017-12-19T04:22:43.424Z,28.20
2017-12-19T04:25:10.964Z,24.63
2017-12-19T04:27:38.504Z,29.10
2017-12-19T04:30:06.161Z,29.10
2017-12-19T04:32:33.673Z,26.53
2017-12-19T04:35:01.254Z,27.10
2017-12-19T04:37:28.889Z,29.33
2017-12-19T04:39:56.747Z,30.43
2017-12-19T04:42:24.380Z,25.33
2017-12-19T04:44:51.940Z,27.90
2017-12-19T04:47:19.533Z,27.30
2017-12-19T04:49:47.119Z,26.50
2017-12-19T04:52:14.715Z,24.60
2017-12-19T04:54:42.272Z,27.67
2017-12-19T04:57:09.871Z,27.63
2017-12-19T04:59:37.430Z,28.17
2017-12-19T05:02:04.963Z,26.97
2017-12-19T05:04:32.690Z,28.70
2017-12-19T05:07:00.249Z,29.63
2017-12-19T05:09:28.195Z,29.40
2017-12-19T05:11:55.754Z,26.60
2017-12-19T05:14:23.370Z,29.17
2017-12-19T05:16:50.903Z,27.67
2017-12-19T05:19:18.436Z,25.60
2017-12-19T05:21:46.056Z,27.77
2017-12-19T05:24:13.652Z,27.03
2017-12-19T05:26:41.522Z,26.70
2017-12-19T05:29:09.124Z,25.50
2017-12-19T05:31:36.817Z,26.93
2017-12-19T05:34:04.396Z,24.27
2017-12-19T05:36:32.040Z,25.13
2017-12-19T05:38:59.603Z,28.40
2017-12-19T05:41:27.159Z,27.50
2017-12-19T05:43:54.718Z,27.23
2017-12-19T05:46:22.304Z,29.80
2017-12-19T05:48:49.851Z,29.03
2017-12-19T05:51:17.440Z,27.00
2017-12-19T05:53:45.046Z,27.23
2017-12-19T05:56:12.748Z,24.60
2017-12-19T05:58:40.388Z,28.77
2017-12-19T06:01:08.014Z,23.83
2017-12-19T06:03:35.690Z,23.13
2017-12-19T06:06:03.260Z,25.23
2017-12-19T06:08:30.844Z,27.50
2017-12-19T06:10:58.399Z,27.43
2017-12-19T06:13:25.935Z,23.30
2017-12-19T06:15:53.575Z,24.77
2017-12-19T06:18:21.130Z,31.23
2017-12-19T06:20:48.953Z,25.80
2017-12-19T06:23:16.495Z,24.20
2017-12-19T06:25:44.939Z,23.00
2017-12-19T06:28:12.494Z,25.03
2017-12-19T06:30:40.062Z,28.17
2017-12-19T06:33:08.153Z,24.70
2017-12-19T06:35:35.732Z,24.93
2017-12-19T06:38:03.277Z,27.20
2017-12-19T06:40:30.991Z,26.10
2017-12-19T06:42:58.534Z,25.53
2017-12-19T06:45:26.364Z,26.90
2017-12-19T06:47:53.905Z,28.90
2017-12-19T06:50:21.444Z,27.40
2017-12-19T06:52:49.013Z,24.33
2017-12-19T06:55:16.556Z,24.83
2017-12-19T06:57:44.126Z,27.37
2017-12-19T07:00:11.767Z,25.30
2017-12-19T07:02:39.761Z,27.47
2017-12-19T07:05:07.310Z,23.60
2017-12-19T07:07:34.866Z,26.03
2017-12-19T07:10:02.387Z,22.90
2017-12-19T07:12:29.890Z,24.63
2017-12-19T07:14:57.425Z,25.33
2017-12-19T07:17:24.950Z,22.53
2017-12-19T07:19:54.109Z,23.90
2017-12-19T07:22:21.692Z,23.73
2017-12-19T07:24:49.236Z,28.40
2017-12-19T07:27:17.028Z,27.77
2017-12-19T07:29:44.552Z,43.63
2017-12-19T07:32:12.088Z,30.13
2017-12-19T07:34:39.606Z,28.20
2017-12-19T07:37:07.106Z,31.23
2017-12-19T07:39:35.420Z,27.90
2017-12-19T07:42:02.977Z,24.53
2017-12-19T07:44:30.826Z,25.57
2017-12-19T07:46:58.356Z,25.03
2017-12-19T07:49:25.909Z,26.00
2017-12-19T07:51:53.573Z,26.90
2017-12-19T07:54:21.121Z,25.40
2017-12-19T07:56:49.312Z,24.73
2017-12-19T07:59:16.852Z,23.10
2017-12-19T08:01:44.403Z,29.63
2017-12-19T08:04:11.993Z,26.70
2017-12-19T08:06:39.553Z,26.93
2017-12-19T08:09:07.108Z,26.70
2017-12-19T08:11:34.677Z,33.57
2017-12-19T08:14:02.235Z,37.60
2017-12-19T08:16:29.805Z,25.80
2017-12-19T08:18:57.376Z,27.73
2017-12-19T08:21:24.985Z,26.33
2017-12-19T08:23:52.528Z,25.97
2017-12-19T08:26:20.459Z,27.60
2017-12-19T08:28:48.004Z,26.20
2017-12-19T08:31:15.545Z,28.83
2017-12-19T08:33:43.110Z,24.67
2017-12-19T08:36:10.655Z,27.73
2017-12-19T08:38:38.236Z,26.00
2017-12-19T08:41:05.770Z,25.70
2017-12-19T08:43:33.334Z,26.13
2017-12-19T08:46:00.916Z,25.10
2017-12-19T08:48:28.460Z,24.73
2017-12-19T08:50:56.270Z,22.47
2017-12-19T08:53:23.823Z,26.97
2017-12-19T08:55:51.363Z,25.13
2017-12-19T08:58:18.933Z,23.00
2017-12-19T09:00:46.507Z,25.73
2017-12-19T09:03:14.078Z,24.20
2017-12-19T09:05:41.680Z,25.17
2017-12-19T09:08:09.263Z,22.90
2017-12-19T09:10:36.827Z,31.83
2017-12-19T09:13:04.379Z,23.57
2017-12-19T09:15:31.981Z,25.17
2017-12-19T09:17:59.588Z,25.57
2017-12-19T09:20:27.143Z,27.07
2017-12-19T09:22:54.766Z,24.17
2017-12-19T09:25:22.412Z,24.20
2017-12-19T09:27:50.258Z,23.10
2017-12-19T09:30:17.816Z,29.13
2017-12-19T09:32:45.370Z,24.27
2017-12-19T09:35:12.893Z,29.57
2017-12-19T09:37:40.439Z,28.63
2017-12-19T09:40:08.364Z,26.90
2017-12-19T09:42:35.944Z,22.33
2017-12-19T09:45:03.481Z,22.97
2017-12-19T09:47:31.074Z,21.90
2017-12-19T09:49:58.886Z,24.53
2017-12-19T09:52:26.496Z,24.47
2017-12-19T09:54:54.039Z,22.70
2017-12-19T09:57:21.865Z,20.93
2017-12-19T09:59:49.430Z,22.70
2017-12-19T10:02:16.988Z,24.90
2017-12-19T10:04:44.598Z,24.33
2017-12-19T10:07:12.154Z,20.10
2017-12-19T10:09:39.770Z,21.83
2017-12-19T10:12:07.530Z,19.70
2017-12-19T10:14:35.505Z,22.17
2017-12-19T10:17:03.058Z,19.60
2017-12-19T10:19:30.620Z,18.20
2017-12-19T10:21:58.184Z,18.83
2017-12-19T10:24:25.737Z,19.73
2017-12-19T10:26:53.296Z,17.67
2017-12-19T10:29:20.850Z,16.67
2017-12-19T10:31:48.482Z,19.67
2017-12-19T10:34:16.027Z,19.60
2017-12-19T10:36:43.584Z,19.27
2017-12-19T10:39:11.140Z,17.07
2017-12-19T10:41:38.680Z,15.43
2017-12-19T10:44:06.229Z,18.13
2017-12-19T10:46:33.764Z,17.67
2017-12-19T10:49:01.366Z,17.20
2017-12-19T10:51:28.952Z,17.30
2017-12-19T10:53:56.490Z,19.33
2017-12-19T10:56:24.105Z,19.23
2017-12-19T10:58:51.642Z,15.57
2017-12-19T11:01:19.606Z,18.77
2017-12-19T11:03:47.171Z,16.03
2017-12-19T11:06:14.730Z,17.97
2017-12-19T11:08:42.336Z,19.63
2017-12-19T11:11:09.878Z,19.37
2017-12-19T11:13:37.464Z,17.70
2017-12-19T11:16:05.010Z,18.03
2017-12-19T11:18:32.560Z,19.03
2017-12-19T11:21:00.119Z,15.37
2017-12-19T11:23:27.649Z,17.60
2017-12-19T11:25:55.205Z,19.43
2017-12-19T11:28:22.766Z,16.70
2017-12-19T11:30:50.338Z,15.50
2017-12-19T11:33:17.875Z,17.20
2017-12-19T11:35:45.408Z,15.17
2017-12-19T11:38:12.954Z,15.80
2017-12-19T11:40:40.538Z,14.00
2017-12-19T11:43:08.133Z,17.03
2017-12-19T11:45:35.708Z,17.50
2017-12-19T11:48:03.308Z,17.97
2017-12-19T11:50:30.876Z,23.90
2017-12-19T11:52:58.445Z,17.70
2017-12-19T11:55:26.012Z,24.07
2017-12-19T11:57:53.576Z,23.77
2017-12-19T12:00:21.472Z,23.03
2017-12-19T12:02:49.008Z,28.60
2017-12-19T12:05:16.551Z,23.23
2017-12-19T12:07:44.136Z,25.00
2017-12-19T12:10:11.696Z,22.63
2017-12-19T12:12:39.296Z,26.50
2017-12-19T12:15:06.848Z,23.97
2017-12-19T12:17:34.420Z,25.33
2017-12-19T12:20:01.996Z,24.83
2017-12-19T12:22:29.549Z,27.70
2017-12-19T12:24:57.102Z,28.73
2017-12-19T12:27:24.637Z,25.60
2017-12-19T12:29:52.447Z,25.67
2017-12-19T12:32:20.013Z,25.53
2017-12-19T12:34:47.568Z,26.30
2017-12-19T12:37:15.172Z,27.00
2017-12-19T12:39:42.777Z,23.87
2017-12-19T12:42:10.347Z,24.17
2017-12-19T12:44:37.917Z,21.13
2017-12-19T12:47:05.783Z,22.57
2017-12-19T12:49:33.323Z,26.90
2017-12-19T12:52:00.844Z,21.37
2017-12-19T12:54:28.424Z,24.87
2017-12-19T12:56:55.962Z,29.20
2017-12-19T12:59:23.529Z,27.50
2017-12-19T13:01:51.094Z,28.10
2017-12-19T13:04:18.696Z,27.80
2017-12-19T13:06:46.282Z,28.03
2017-12-19T13:09:13.799Z,26.50
2017-12-19T13:11:41.419Z,26.97
2017-12-19T13:14:08.971Z,27.60
2017-12-19T13:16:36.530Z,28.30
2017-12-19T13:19:04.071Z,30.20
2017-12-19T13:21:31.610Z,29.37
2017-12-19T13:23:59.174Z,33.37
2017-12-19T13:26:26.787Z,31.33
2017-12-19T13:28:54.653Z,33.10
2017-12-19T13:31:22.208Z,30.23
2017-12-19T13:33:49.772Z,27.87
2017-12-19T13:36:17.405Z,29.27
2017-12-19T13:38:44.970Z,31.13
2017-12-19T13:41:12.961Z,26.67
2017-12-19T13:43:40.495Z,28.93
2017-12-19T13:46:08.036Z,28.90
2017-12-19T13:48:35.617Z,35.10
2017-12-19T13:51:03.163Z,34.00
2017-12-19T13:53:31.235Z,32.03
2017-12-19T13:55:58.798Z,33.13
2017-12-19T13:58:26.372Z,34.00
2017-12-19T14:00:53.984Z,33.77
2017-12-19T14:03:21.562Z,34.70
2017-12-19T14:05:49.159Z,31.50
2017-12-19T14:08:16.722Z,32.63
2017-12-19T14:10:44.312Z,30.53
2017-12-19T14:13:21.573Z,30.53
2017-12-19T14:15:49.148Z,28.33
2017-12-19T14:18:16.701Z,30.03
2017-12-19T14:20:44.239Z,30.30
2017-12-19T14:23:11.857Z,34.20
2017-12-19T14:25:39.412Z,32.00
2017-12-19T14:28:06.996Z,30.60
2017-12-19T14:30:34.616Z,32.20
2017-12-19T14:33:02.215Z,34.73
2017-12-19T14:35:29.781Z,29.00
2017-12-19T14:37:57.348Z,31.60
2017-12-19T14:40:24.916Z,30.27
2017-12-19T14:42:52.464Z,31.10
2017-12-19T14:45:20.029Z,29.97
2017-12-19T14:47:47.571Z,30.80
2017-12-19T14:50:15.162Z,33.33
2017-12-19T14:52:42.735Z,32.37
2017-12-19T14:55:10.295Z,34.17
2017-12-19T14:57:37.856Z,31.57
2017-12-19T15:00:05.465Z,29.20
2017-12-19T15:02:33.051Z,36.47
2017-12-19T15:05:00.632Z,35.60
2017-12-19T15:07:28.486Z,36.20
2017-12-19T15:09:56.055Z,34.70
2017-12-19T15:12:23.612Z,33.93
2017-12-19T15:14:51.189Z,31.80
2017-12-19T15:17:18.724Z,30.57
2017-12-19T15:19:46.682Z,31.13
2017-12-19T15:22:14.231Z,33.97
2017-12-19T15:24:41.802Z,32.63
2017-12-19T15:27:09.433Z,31.90
2017-12-19T15:29:37.000Z,30.40
2017-12-19T15:32:04.597Z,31.80
2017-12-19T15:34:32.182Z,40.30
2017-12-19T15:36:59.857Z,32.63
2017-12-19T15:39:27.448Z,33.60
2017-12-19T15:41:55.021Z,31.07
2017-12-19T15:44:22.632Z,35.77
2017-12-19T15:46:50.192Z,34.90
2017-12-19T15:49:17.798Z,35.13
2017-12-19T15:51:45.398Z,32.60
2017-12-19T15:54:13.004Z,34.40
2017-12-19T15:56:40.572Z,34.00
2017-12-19T15:59:08.156Z,34.83
2017-12-19T16:01:35.762Z,43.43
2017-12-19T16:04:03.329Z,35.10
2017-12-19T16:06:31.365Z,29.53
2017-12-19T16:08:58.984Z,32.67
2017-12-19T16:11:26.577Z,31.63
2017-12-19T16:13:54.176Z,35.63
2017-12-19T16:16:21.717Z,32.73
2017-12-19T16:18:49.356Z,34.53
2017-12-19T16:21:16.928Z,35.53
2017-12-19T16:23:44.511Z,38.70
2017-12-19T16:26:12.105Z,38.30
2017-12-19T16:28:39.724Z,37.57
2017-12-19T16:31:07.344Z,33.53
2017-12-19T16:33:34.943Z,39.23
2017-12-19T16:36:02.504Z,42.20
2017-12-19T16:38:30.081Z,38.37
2017-12-19T16:40:57.689Z,40.43
2017-12-19T16:43:25.282Z,37.47
2017-12-19T16:45:52.839Z,33.07
2017-12-19T16:48:20.446Z,36.10
2017-12-19T16:50:48.029Z,30.90
2017-12-19T16:53:15.584Z,36.30
2017-12-19T16:55:43.151Z,41.10
2017-12-19T16:58:10.708Z,35.77
2017-12-19T17:00:38.319Z,35.92
2017-12-19T17:03:05.866Z,36.17
2017-12-19T17:05:33.464Z,38.78
2017-12-19T17:08:01.053Z,36.57
2017-12-19T17:10:28.617Z,36.87
2017-12-19T17:12:56.248Z,39.35
2017-12-19T17:15:23.858Z,38.43
2017-12-19T17:17:51.435Z,37.40
2017-12-19T17:20:19.030Z,37.37
2017-12-19T17:22:46.618Z,37.13
2017-12-19T17:25:14.212Z,36.50
2017-12-19T17:27:41.776Z,35.73
2017-12-19T17:30:09.332Z,40.13
2017-12-19T17:32:36.940Z,37.27
2017-12-19T17:35:04.558Z,35.20
2017-12-19T17:37:32.133Z,38.50
2017-12-19T17:39:59.689Z,33.93
2017-12-19T17:42:27.276Z,33.63
2017-12-19T17:44:54.839Z,39.30
2017-12-19T17:47:22.433Z,36.53
2017-12-19T17:49:50.044Z,35.20
2017-12-19T17:52:17.636Z,35.80
2017-12-19T17:54:45.282Z,35.03
2017-12-19T17:57:12.859Z,33.70
2017-12-19T17:59:40.452Z,34.27
2017-12-19T18:02:08.024Z,33.37
2017-12-19T18:04:35.588Z,36.70
2017-12-19T18:07:03.166Z,34.67
2017-12-19T18:09:30.736Z,33.20
2017-12-19T18:11:58.335Z,35.30
2017-12-19T18:14:25.926Z,33.30
2017-12-19T18:16:53.526Z,33.50
2017-12-19T18:19:21.113Z,34.93
2017-12-19T18:21:48.691Z,35.53
2017-12-19T18:24:16.307Z,35.33
2017-12-19T18:26:43.932Z,33.97
2017-12-19T18:29:11.545Z,31.80
2017-12-19T18:31:39.168Z,33.93
2017-12-19T18:34:06.725Z,37.70
2017-12-19T18:36:34.364Z,37.73
2017-12-19T18:39:01.971Z,33.97
2017-12-19T18:41:29.551Z,36.60
2017-12-19T18:43:57.125Z,37.70
2017-12-19T18:46:24.722Z,29.37
2017-12-19T18:48:52.277Z,32.90
2017-12-19T18:51:19.844Z,30.97
2017-12-19T18:53:47.408Z,34.37
2017-12-19T18:56:14.971Z,35.63
2017-12-19T18:58:42.588Z,34.70
2017-12-19T19:01:10.187Z,32.33
2017-12-19T19:03:37.834Z,29.87
2017-12-19T19:06:05.391Z,31.30
2017-12-19T19:08:32.901Z,28.87
2017-12-19T19:11:00.522Z,31.10
2017-12-19T19:13:28.134Z,31.40
2017-12-19T19:15:55.817Z,32.03
2017-12-19T19:18:23.437Z,32.10
2017-12-19T19:20:51.038Z,30.70
2017-12-19T19:23:18.645Z,30.57
2017-12-19T19:25:46.214Z,32.90
2017-12-19T19:28:13.812Z,33.00
2017-12-19T19:32:41.232Z,31.73
2017-12-19T19:35:14.957Z,34.83
2017-12-19T19:37:50.096Z,31.17
2017-12-19T19:40:23.367Z,32.53
2017-12-19T19:43:01.576Z,31.60
2017-12-19T19:45:34.786Z,29.70
2017-12-19T19:50:46.079Z,29.97
2017-12-19T19:53:25.626Z,29.03
2017-12-19T19:55:57.580Z,30.10
2017-12-19T19:58:33.540Z,28.77
2017-12-19T20:01:09.195Z,32.73
2017-12-19T20:03:43.505Z,34.90
2017-12-19T20:06:23.875Z,28.73
2017-12-19T20:09:00.293Z,27.90
2017-12-19T20:11:33.853Z,32.07
2017-12-19T20:14:06.943Z,31.53
2017-12-19T20:16:43.375Z,28.80
2017-12-19T20:19:18.003Z,31.57
2017-12-19T20:24:38.964Z,31.87
2017-12-19T20:27:13.816Z,30.80
2017-12-19T20:29:52.727Z,26.20
2017-12-19T20:32:27.696Z,28.53
2017-12-19T20:35:01.697Z,26.90
2017-12-19T20:37:36.024Z,27.33
2017-12-19T20:40:14.517Z,25.97
2017-12-19T20:42:49.649Z,28.17
2017-12-19T20:45:28.491Z,27.57
2017-12-19T20:48:09.157Z,28.80
2017-12-19T20:50:51.721Z,26.73
2017-12-19T20:53:25.472Z,28.00
2017-12-19T20:56:00.911Z,29.50
2017-12-19T20:58:41.266Z,29.07
2017-12-19T21:01:14.443Z,29.37
2017-12-19T21:03:49.921Z,30.50
2017-12-19T21:06:25.775Z,30.80
2017-12-19T21:08:57.097Z,29.77
2017-12-19T21:11:36.835Z,30.00
2017-12-19T21:14:12.585Z,33.50
2017-12-19T21:16:46.644Z,30.17
2017-12-19T21:19:25.772Z,30.90
2017-12-19T21:22:00.043Z,31.47
2017-12-19T21:24:34.928Z,32.47
2017-12-19T21:29:49.746Z,33.80
2017-12-19T21:32:28.352Z,32.43
2017-12-19T21:35:00.886Z,32.10
2017-12-19T21:37:32.261Z,29.20
2017-12-19T21:40:05.164Z,33.33
2017-12-19T21:42:39.220Z,30.73
2017-12-19T21:45:14.415Z,32.27
2017-12-19T21:47:45.864Z,30.23
2017-12-19T21:50:20.377Z,32.80
2017-12-19T21:52:52.671Z,30.20
2017-12-19T21:55:26.260Z,28.53
2017-12-19T21:57:58.428Z,28.77
2017-12-19T22:00:32.349Z,28.70
2017-12-19T22:03:06.142Z,29.07
2017-12-19T22:05:39.445Z,27.03
2017-12-19T22:08:14.379Z,27.13
2017-12-19T22:10:46.439Z,26.33
2017-12-19T22:13:22.900Z,24.97
2017-12-19T22:16:05.528Z,25.60
2017-12-19T22:18:37.192Z,30.40
2017-12-19T22:21:09.426Z,24.87
2017-12-19T22:23:46.233Z,22.73
2017-12-19T22:26:21.352Z,23.60
2017-12-19T22:28:56.181Z,21.70
2017-12-19T22:31:36.877Z,25.77
2017-12-19T22:34:10.234Z,22.40
2017-12-19T22:36:43.112Z,23.13
2017-12-19T22:39:15.280Z,24.53
2017-12-19T22:41:54.300Z,23.37
2017-12-19T22:44:29.092Z,25.67
2017-12-19T22:47:16.212Z,25.80
2017-12-19T22:49:49.127Z,24.70
2017-12-19T22:52:21.270Z,25.53
2017-12-19T22:54:56.410Z,25.13
2017-12-19T22:57:30.235Z,23.50
2017-12-19T23:00:07.213Z,23.53
2017-12-19T23:02:39.470Z,26.80
2017-12-19T23:05:12.878Z,24.47
2017-12-19T23:07:43.716Z,25.60
2017-12-19T23:10:19.261Z,24.60
2017-12-19T23:12:51.943Z,24.87
2017-12-19T23:15:32.814Z,24.73
2017-12-19T23:18:09.478Z,27.73
2017-12-19T23:20:44.422Z,24.77
2017-12-19T23:23:21.100Z,26.27
2017-12-19T23:25:53.164Z,25.40
2017-12-19T23:28:37.404Z,26.07
2017-12-19T23:31:13.648Z,27.70
2017-12-19T23:33:50.129Z,24.87
2017-12-19T23:36:30.069Z,28.00
2017-12-19T23:39:08.784Z,29.77
2017-12-19T23:41:45.149Z,25.97
2017-12-19T23:44:22.390Z,27.57
2017-12-19T23:46:58.114Z,24.97
2017-12-19T23:49:32.496Z,24.30
2017-12-19T23:52:05.586Z,26.27
2017-12-19T23:54:39.770Z,24.07
2017-12-19T23:57:16.480Z,26.70
